sensor_id;sensor_type;location;lat;lon;timestamp;pressure;altitude;pressure_sealevel;temperature;humidity
77871;BME280;67067;46.850;7.578;2023-10-19T00:00:56;94000.19;;;10.61;57.68
77871;BME280;67067;46.850;7.578;2023-10-19T00:01:58;93995.69;;;10.62;57.63
77871;BME280;67067;46.850;7.578;2023-10-19T00:03:02;93994.59;;;10.63;57.54
77871;BME280;67067;46.850;7.578;2023-10-19T00:04:08;93989.31;;;10.63;57.66
77871;BME280;67067;46.850;7.578;2023-10-19T00:05:10;93984.25;;;10.66;57.35
77871;BME280;67067;46.850;7.578;2023-10-19T00:06:14;93988.25;;;10.64;57.70
77871;BME280;67067;46.850;7.578;2023-10-19T00:07:16;93989.81;;;10.65;57.44
77871;BME280;67067;46.850;7.578;2023-10-19T00:08:18;93992.72;;;10.68;57.69
77871;BME280;67067;46.850;7.578;2023-10-19T00:09:21;93990.25;;;10.72;57.71
77871;BME280;67067;46.850;7.578;2023-10-19T00:10:24;93995.28;;;10.74;57.75
77871;BME280;67067;46.850;7.578;2023-10-19T00:11:30;93988.66;;;10.76;57.54
77871;BME280;67067;46.850;7.578;2023-10-19T00:12:32;93991.00;;;10.78;57.48
77871;BME280;67067;46.850;7.578;2023-10-19T00:13:34;93982.88;;;10.69;57.65
77871;BME280;67067;46.850;7.578;2023-10-19T00:14:37;93980.66;;;10.81;57.18
77871;BME280;67067;46.850;7.578;2023-10-19T00:15:42;93978.50;;;10.84;57.13
77871;BME280;67067;46.850;7.578;2023-10-19T00:16:53;93978.28;;;10.80;57.10
77871;BME280;67067;46.850;7.578;2023-10-19T00:18:01;93979.09;;;10.80;57.21
77871;BME280;67067;46.850;7.578;2023-10-19T00:19:22;93977.22;;;10.81;56.90
77871;BME280;67067;46.850;7.578;2023-10-19T00:20:23;93973.38;;;10.68;57.15
77871;BME280;67067;46.850;7.578;2023-10-19T00:21:44;93981.22;;;10.78;57.05
77871;BME280;67067;46.850;7.578;2023-10-19T00:22:52;93979.09;;;10.80;56.97
77871;BME280;67067;46.850;7.578;2023-10-19T00:23:58;93979.28;;;10.84;57.08
77871;BME280;67067;46.850;7.578;2023-10-19T00:25:05;93983.00;;;10.83;57.13
77871;BME280;67067;46.850;7.578;2023-10-19T00:26:09;93979.03;;;10.86;57.38
77871;BME280;67067;46.850;7.578;2023-10-19T00:27:20;93969.50;;;10.85;57.41
77871;BME280;67067;46.850;7.578;2023-10-19T00:28:25;93981.66;;;10.86;57.33
77871;BME280;67067;46.850;7.578;2023-10-19T00:29:28;93972.66;;;10.87;57.39
77871;BME280;67067;46.850;7.578;2023-10-19T00:30:34;93975.88;;;10.84;57.16
77871;BME280;67067;46.850;7.578;2023-10-19T00:31:39;93966.56;;;10.86;57.31
77871;BME280;67067;46.850;7.578;2023-10-19T00:32:44;93963.63;;;10.88;57.23
77871;BME280;67067;46.850;7.578;2023-10-19T00:33:48;93968.63;;;10.89;57.17
77871;BME280;67067;46.850;7.578;2023-10-19T00:34:53;93960.19;;;10.87;57.25
77871;BME280;67067;46.850;7.578;2023-10-19T00:35:55;93963.41;;;10.84;57.24
77871;BME280;67067;46.850;7.578;2023-10-19T00:37:10;93958.34;;;10.88;57.06
77871;BME280;67067;46.850;7.578;2023-10-19T00:38:13;93966.28;;;10.88;56.99
77871;BME280;67067;46.850;7.578;2023-10-19T00:39:22;93957.84;;;10.86;57.13
77871;BME280;67067;46.850;7.578;2023-10-19T00:40:24;93956.53;;;10.83;57.35
77871;BME280;67067;46.850;7.578;2023-10-19T00:41:36;93957.00;;;10.66;57.51
77871;BME280;67067;46.850;7.578;2023-10-19T00:42:39;93951.03;;;10.79;57.19
77871;BME280;67067;46.850;7.578;2023-10-19T00:43:48;93953.38;;;10.81;57.26
77871;BME280;67067;46.850;7.578;2023-10-19T00:44:59;93950.47;;;10.82;57.38
77871;BME280;67067;46.850;7.578;2023-10-19T00:46:06;93951.81;;;10.80;57.65
77871;BME280;67067;46.850;7.578;2023-10-19T00:47:24;93949.66;;;10.82;57.33
77871;BME280;67067;46.850;7.578;2023-10-19T00:48:29;93952.63;;;10.80;57.33
77871;BME280;67067;46.850;7.578;2023-10-19T00:49:36;93953.69;;;10.79;57.25
77871;BME280;67067;46.850;7.578;2023-10-19T00:50:39;93952.03;;;10.84;57.18
77871;BME280;67067;46.850;7.578;2023-10-19T00:51:47;93958.47;;;10.77;57.33
77871;BME280;67067;46.850;7.578;2023-10-19T00:52:56;93951.31;;;10.78;57.47
77871;BME280;67067;46.850;7.578;2023-10-19T00:54:17;93950.06;;;10.70;57.49
77871;BME280;67067;46.850;7.578;2023-10-19T00:55:28;93954.09;;;10.67;57.69
77871;BME280;67067;46.850;7.578;2023-10-19T00:56:31;93951.72;;;10.66;57.46
77871;BME280;67067;46.850;7.578;2023-10-19T00:57:33;93940.34;;;10.65;57.42
77871;BME280;67067;46.850;7.578;2023-10-19T00:58:37;93946.41;;;10.66;57.42
77871;BME280;67067;46.850;7.578;2023-10-19T00:59:42;93950.44;;;10.63;57.40
77871;BME280;67067;46.850;7.578;2023-10-19T01:02:23;93936.03;;;10.21;58.30
77871;BME280;67067;46.850;7.578;2023-10-19T01:03:28;93942.22;;;10.11;58.81
77871;BME280;67067;46.850;7.578;2023-10-19T01:04:34;93938.53;;;10.12;59.10
77871;BME280;67067;46.850;7.578;2023-10-19T01:05:36;93932.88;;;10.19;58.85
77871;BME280;67067;46.850;7.578;2023-10-19T01:06:40;93941.56;;;10.24;58.77
77871;BME280;67067;46.850;7.578;2023-10-19T01:07:45;93935.94;;;10.31;58.61
77871;BME280;67067;46.850;7.578;2023-10-19T01:08:48;93939.03;;;10.38;58.53
77871;BME280;67067;46.850;7.578;2023-10-19T01:09:57;93938.19;;;10.43;58.26
77871;BME280;67067;46.850;7.578;2023-10-19T01:11:01;93938.44;;;10.47;58.17
77871;BME280;67067;46.850;7.578;2023-10-19T01:12:05;93942.38;;;10.49;58.07
77871;BME280;67067;46.850;7.578;2023-10-19T01:13:25;93943.44;;;10.48;58.12
77871;BME280;67067;46.850;7.578;2023-10-19T01:14:38;93943.19;;;10.50;58.01
77871;BME280;67067;46.850;7.578;2023-10-19T01:15:40;93935.75;;;10.52;57.99
77871;BME280;67067;46.850;7.578;2023-10-19T01:16:42;93935.44;;;10.53;57.90
77871;BME280;67067;46.850;7.578;2023-10-19T01:17:48;93934.69;;;10.53;57.92
77871;BME280;67067;46.850;7.578;2023-10-19T01:18:55;93935.75;;;10.52;57.99
77871;BME280;67067;46.850;7.578;2023-10-19T01:19:57;93935.50;;;10.48;57.98
77871;BME280;67067;46.850;7.578;2023-10-19T01:21:00;93937.09;;;10.49;58.00
77871;BME280;67067;46.850;7.578;2023-10-19T01:22:08;93927.56;;;10.48;57.96
77871;BME280;67067;46.850;7.578;2023-10-19T01:23:12;93936.84;;;10.46;58.05
77871;BME280;67067;46.850;7.578;2023-10-19T01:24:27;93938.19;;;10.43;58.09
77871;BME280;67067;46.850;7.578;2023-10-19T01:25:45;93936.84;;;10.46;58.19
77871;BME280;67067;46.850;7.578;2023-10-19T01:26:51;93931.78;;;10.49;58.17
77871;BME280;67067;46.850;7.578;2023-10-19T01:27:58;93924.66;;;10.50;58.00
77871;BME280;67067;46.850;7.578;2023-10-19T01:29:00;93936.53;;;10.52;57.97
77871;BME280;67067;46.850;7.578;2023-10-19T01:30:15;93933.38;;;10.50;58.09
77871;BME280;67067;46.850;7.578;2023-10-19T01:31:21;93919.06;;;10.51;58.11
77871;BME280;67067;46.850;7.578;2023-10-19T01:32:30;93920.94;;;10.51;57.98
77871;BME280;67067;46.850;7.578;2023-10-19T01:33:31;93925.03;;;10.38;58.59
77871;BME280;67067;46.850;7.578;2023-10-19T01:34:34;93927.03;;;10.46;58.10
77871;BME280;67067;46.850;7.578;2023-10-19T01:35:41;93920.16;;;10.50;58.04
77871;BME280;67067;46.850;7.578;2023-10-19T01:37:01;93932.03;;;10.53;58.01
77871;BME280;67067;46.850;7.578;2023-10-19T01:38:06;93922.22;;;10.53;57.71
77871;BME280;67067;46.850;7.578;2023-10-19T01:39:10;93909.28;;;10.52;57.92
77871;BME280;67067;46.850;7.578;2023-10-19T01:40:12;93911.63;;;10.53;57.97
77871;BME280;67067;46.850;7.578;2023-10-19T01:41:23;93912.16;;;10.56;57.94
77871;BME280;67067;46.850;7.578;2023-10-19T01:42:26;93911.56;;;10.59;57.96
77871;BME280;67067;46.850;7.578;2023-10-19T01:43:28;93910.00;;;10.58;57.86
77871;BME280;67067;46.850;7.578;2023-10-19T01:44:35;93912.59;;;10.63;57.74
77871;BME280;67067;46.850;7.578;2023-10-19T01:45:37;93912.09;;;10.61;57.87
77871;BME280;67067;46.850;7.578;2023-10-19T01:46:39;93906.53;;;10.62;57.82
77871;BME280;67067;46.850;7.578;2023-10-19T01:47:44;93912.59;;;10.63;57.78
77871;BME280;67067;46.850;7.578;2023-10-19T01:48:45;93908.94;;;10.59;58.07
77871;BME280;67067;46.850;7.578;2023-10-19T01:49:48;93912.66;;;10.58;58.12
77871;BME280;67067;46.850;7.578;2023-10-19T01:50:53;93906.28;;;10.59;58.13
77871;BME280;67067;46.850;7.578;2023-10-19T01:51:55;93912.03;;;10.42;58.50
77871;BME280;67067;46.850;7.578;2023-10-19T01:52:59;93901.34;;;10.52;58.21
77871;BME280;67067;46.850;7.578;2023-10-19T01:54:02;93907.94;;;10.55;58.15
77871;BME280;67067;46.850;7.578;2023-10-19T01:55:04;93905.56;;;10.53;58.23
77871;BME280;67067;46.850;7.578;2023-10-19T01:56:11;93908.22;;;10.53;58.25
77871;BME280;67067;46.850;7.578;2023-10-19T01:57:14;93903.69;;;10.53;58.13
77871;BME280;67067;46.850;7.578;2023-10-19T01:58:17;93905.00;;;10.56;58.15
77871;BME280;67067;46.850;7.578;2023-10-19T01:59:18;93900.66;;;10.41;58.44
77871;BME280;67067;46.850;7.578;2023-10-19T02:03:11;93910.00;;;10.58;58.17
77871;BME280;67067;46.850;7.578;2023-10-19T02:04:13;93905.50;;;10.58;57.96
77871;BME280;67067;46.850;7.578;2023-10-19T02:05:18;93906.34;;;10.53;58.11
77871;BME280;67067;46.850;7.578;2023-10-19T02:06:24;93905.28;;;10.55;58.27
77871;BME280;67067;46.850;7.578;2023-10-19T02:07:35;93907.94;;;10.55;58.16
77871;BME280;67067;46.850;7.578;2023-10-19T02:08:37;93897.44;;;10.44;58.21
77871;BME280;67067;46.850;7.578;2023-10-19T02:09:42;93900.00;;;10.55;58.21
77871;BME280;67067;46.850;7.578;2023-10-19T02:10:47;93898.16;;;10.55;58.03
77871;BME280;67067;46.850;7.578;2023-10-19T02:11:52;93896.00;;;10.57;58.14
77871;BME280;67067;46.850;7.578;2023-10-19T02:13:00;93904.72;;;10.58;58.01
77871;BME280;67067;46.850;7.578;2023-10-19T02:14:08;93902.88;;;10.58;57.83
77871;BME280;67067;46.850;7.578;2023-10-19T02:15:21;93902.06;;;10.58;57.99
77871;BME280;67067;46.850;7.578;2023-10-19T02:16:24;93908.16;;;10.58;57.98
77871;BME280;67067;46.850;7.578;2023-10-19T02:17:31;93906.09;;;10.55;57.98
77871;BME280;67067;46.850;7.578;2023-10-19T02:18:35;93901.88;;;10.54;58.20
77871;BME280;67067;46.850;7.578;2023-10-19T02:19:38;93893.41;;;10.52;58.02
77871;BME280;67067;46.850;7.578;2023-10-19T02:20:39;93898.72;;;10.52;58.14
77871;BME280;67067;46.850;7.578;2023-10-19T02:21:43;93904.50;;;10.54;57.82
77871;BME280;67067;46.850;7.578;2023-10-19T02:22:49;93903.69;;;10.53;58.01
77871;BME280;67067;46.850;7.578;2023-10-19T02:23:53;93901.56;;;10.56;57.92
77871;BME280;67067;46.850;7.578;2023-10-19T02:24:59;93895.19;;;10.57;57.96
77871;BME280;67067;46.850;7.578;2023-10-19T02:26:01;93898.16;;;10.55;57.89
77871;BME280;67067;46.850;7.578;2023-10-19T02:27:05;93902.94;;;10.53;57.96
77871;BME280;67067;46.850;7.578;2023-10-19T02:28:11;93900.00;;;10.55;57.97
77871;BME280;67067;46.850;7.578;2023-10-19T02:29:14;93895.00;;;10.53;57.79
77871;BME280;67067;46.850;7.578;2023-10-19T02:30:16;93898.50;;;10.43;58.09
77871;BME280;67067;46.850;7.578;2023-10-19T02:31:20;93891.38;;;10.44;58.07
77871;BME280;67067;46.850;7.578;2023-10-19T02:32:27;93904.56;;;10.49;57.90
77871;BME280;67067;46.850;7.578;2023-10-19T02:33:29;93894.00;;;10.49;57.92
77871;BME280;67067;46.850;7.578;2023-10-19T02:34:31;93890.00;;;10.46;57.98
77871;BME280;67067;46.850;7.578;2023-10-19T02:35:33;93887.38;;;10.46;57.98
77871;BME280;67067;46.850;7.578;2023-10-19T02:36:38;93894.75;;;10.49;57.93
77871;BME280;67067;46.850;7.578;2023-10-19T02:37:42;93886.56;;;10.51;57.94
77871;BME280;67067;46.850;7.578;2023-10-19T02:38:47;93883.91;;;10.51;57.94
77871;BME280;67067;46.850;7.578;2023-10-19T02:39:53;93875.97;;;10.51;58.04
77871;BME280;67067;46.850;7.578;2023-10-19T02:40:55;93886.00;;;10.54;57.91
77871;BME280;67067;46.850;7.578;2023-10-19T02:41:57;93876.97;;;10.55;57.96
77871;BME280;67067;46.850;7.578;2023-10-19T02:43:03;93883.03;;;10.56;57.99
77871;BME280;67067;46.850;7.578;2023-10-19T02:44:10;93878.31;;;10.52;58.14
77871;BME280;67067;46.850;7.578;2023-10-19T02:45:21;93876.97;;;10.55;58.11
77871;BME280;67067;46.850;7.578;2023-10-19T02:46:23;93874.53;;;10.59;58.04
77871;BME280;67067;46.850;7.578;2023-10-19T02:47:25;93872.69;;;10.59;58.10
77871;BME280;67067;46.850;7.578;2023-10-19T02:48:30;93870.31;;;10.58;58.14
77871;BME280;67067;46.850;7.578;2023-10-19T02:49:35;93871.69;;;10.55;58.15
77871;BME280;67067;46.850;7.578;2023-10-19T02:50:43;93866.91;;;10.57;58.09
77871;BME280;67067;46.850;7.578;2023-10-19T02:51:49;93862.13;;;10.59;57.94
77871;BME280;67067;46.850;7.578;2023-10-19T02:52:52;93866.59;;;10.59;58.17
77871;BME280;67067;46.850;7.578;2023-10-19T02:53:58;93856.59;;;10.56;58.16
77871;BME280;67067;46.850;7.578;2023-10-19T02:55:04;93863.97;;;10.59;58.04
77871;BME280;67067;46.850;7.578;2023-10-19T02:56:13;93864.75;;;10.59;58.09
77871;BME280;67067;46.850;7.578;2023-10-19T02:57:17;93868.19;;;10.60;58.01
77871;BME280;67067;46.850;7.578;2023-10-19T02:58:23;93857.03;;;10.63;57.99
77871;BME280;67067;46.850;7.578;2023-10-19T02:59:25;93863.03;;;10.49;58.19
77871;BME280;67067;46.850;7.578;2023-10-19T03:00:27;93865.19;;;10.42;58.57
77871;BME280;67067;46.850;7.578;2023-10-19T03:01:36;93860.31;;;10.55;58.16
77871;BME280;67067;46.850;7.578;2023-10-19T03:02:42;93857.59;;;10.60;58.02
77871;BME280;67067;46.850;7.578;2023-10-19T03:03:51;93857.59;;;10.60;57.93
77871;BME280;67067;46.850;7.578;2023-10-19T03:04:55;93854.09;;;10.64;57.88
77871;BME280;67067;46.850;7.578;2023-10-19T03:05:56;93855.09;;;10.49;58.08
77871;BME280;67067;46.850;7.578;2023-10-19T03:07:04;93858.09;;;10.62;57.79
77871;BME280;67067;46.850;7.578;2023-10-19T03:08:09;93855.44;;;10.62;57.88
77871;BME280;67067;46.850;7.578;2023-10-19T03:09:11;93850.38;;;10.65;57.84
77871;BME280;67067;46.850;7.578;2023-10-19T03:10:17;93853.81;;;10.66;57.84
77871;BME280;67067;46.850;7.578;2023-10-19T03:11:48;93852.03;;;10.61;57.92
77871;BME280;67067;46.850;7.578;2023-10-19T03:12:54;93846.44;;;10.63;57.84
77871;BME280;67067;46.850;7.578;2023-10-19T03:13:58;93850.66;;;10.64;58.04
77871;BME280;67067;46.850;7.578;2023-10-19T03:15:02;93852.66;;;10.53;58.13
77871;BME280;67067;46.850;7.578;2023-10-19T03:16:05;93850.66;;;10.64;57.91
77871;BME280;67067;46.850;7.578;2023-10-19T03:17:09;93851.16;;;10.66;57.96
77871;BME280;67067;46.850;7.578;2023-10-19T03:18:12;93855.09;;;10.68;57.90
77871;BME280;67067;46.850;7.578;2023-10-19T03:19:17;93848.44;;;10.71;57.87
77871;BME280;67067;46.850;7.578;2023-10-19T03:20:18;93846.88;;;10.70;57.67
77871;BME280;67067;46.850;7.578;2023-10-19T03:21:25;93842.66;;;10.69;57.84
77871;BME280;67067;46.850;7.578;2023-10-19T03:22:30;93838.38;;;10.73;57.81
77871;BME280;67067;46.850;7.578;2023-10-19T03:23:35;93842.06;;;10.72;57.94
77871;BME280;67067;46.850;7.578;2023-10-19T03:24:39;93838.09;;;10.75;57.78
77871;BME280;67067;46.850;7.578;2023-10-19T03:25:53;93842.88;;;10.73;57.87
77871;BME280;67067;46.850;7.578;2023-10-19T03:27:15;93837.16;;;10.65;58.09
77871;BME280;67067;46.850;7.578;2023-10-19T03:28:21;93837.66;;;10.67;58.02
77871;BME280;67067;46.850;7.578;2023-10-19T03:29:27;93832.56;;;10.71;58.13
77871;BME280;67067;46.850;7.578;2023-10-19T03:30:40;93836.84;;;10.67;58.10
77871;BME280;67067;46.850;7.578;2023-10-19T03:31:41;93838.94;;;10.70;58.18
77871;BME280;67067;46.850;7.578;2023-10-19T03:32:47;93839.50;;;10.67;58.18
77871;BME280;67067;46.850;7.578;2023-10-19T03:33:49;93829.72;;;10.67;58.04
77871;BME280;67067;46.850;7.578;2023-10-19T03:34:57;93827.84;;;10.68;57.91
77871;BME280;67067;46.850;7.578;2023-10-19T03:36:02;93829.41;;;10.69;58.15
77871;BME280;67067;46.850;7.578;2023-10-19T03:37:14;93822.56;;;10.68;58.00
77871;BME280;67067;46.850;7.578;2023-10-19T03:38:17;93824.63;;;10.71;57.94
77871;BME280;67067;46.850;7.578;2023-10-19T03:39:21;93831.78;;;10.71;58.05
77871;BME280;67067;46.850;7.578;2023-10-19T03:40:23;93831.00;;;10.70;58.12
77871;BME280;67067;46.850;7.578;2023-10-19T03:41:34;93831.56;;;10.67;58.06
77871;BME280;67067;46.850;7.578;2023-10-19T03:42:37;93822.78;;;10.72;58.24
77871;BME280;67067;46.850;7.578;2023-10-19T03:43:48;93825.50;;;10.66;58.09
77871;BME280;67067;46.850;7.578;2023-10-19T03:44:53;93822.56;;;10.68;58.04
77871;BME280;67067;46.850;7.578;2023-10-19T03:45:59;93828.84;;;10.72;58.11
77871;BME280;67067;46.850;7.578;2023-10-19T03:47:06;93820.13;;;10.72;58.07
77871;BME280;67067;46.850;7.578;2023-10-19T03:48:13;93814.56;;;10.73;58.07
77871;BME280;67067;46.850;7.578;2023-10-19T03:49:19;93822.22;;;10.75;58.03
77871;BME280;67067;46.850;7.578;2023-10-19T03:50:24;93815.34;;;10.74;57.92
77871;BME280;67067;46.850;7.578;2023-10-19T03:51:27;93824.09;;;10.74;57.94
77871;BME280;67067;46.850;7.578;2023-10-19T03:52:40;93816.16;;;10.74;57.80
77871;BME280;67067;46.850;7.578;2023-10-19T03:53:43;93812.41;;;10.75;57.84
77871;BME280;67067;46.850;7.578;2023-10-19T03:54:55;93809.81;;;10.70;57.79
77871;BME280;67067;46.850;7.578;2023-10-19T03:55:59;93810.91;;;10.69;58.00
77871;BME280;67067;46.850;7.578;2023-10-19T03:57:01;93812.19;;;10.72;57.91
77871;BME280;67067;46.850;7.578;2023-10-19T03:58:08;93804.53;;;10.70;57.95
77871;BME280;67067;46.850;7.578;2023-10-19T03:59:09;93797.66;;;10.69;57.98
77871;BME280;67067;46.850;7.578;2023-10-19T04:02:08;93799.84;;;10.23;58.93
77871;BME280;67067;46.850;7.578;2023-10-19T04:03:18;93798.66;;;10.10;59.62
77871;BME280;67067;46.850;7.578;2023-10-19T04:04:20;93795.97;;;10.16;59.63
77871;BME280;67067;46.850;7.578;2023-10-19T04:05:23;93783.69;;;10.25;59.29
77871;BME280;67067;46.850;7.578;2023-10-19T04:06:25;93779.63;;;10.33;59.17
77871;BME280;67067;46.850;7.578;2023-10-19T04:07:29;93782.19;;;10.38;59.02
77871;BME280;67067;46.850;7.578;2023-10-19T04:08:33;93780.84;;;10.41;58.99
77871;BME280;67067;46.850;7.578;2023-10-19T04:09:39;93783.69;;;10.44;58.81
77871;BME280;67067;46.850;7.578;2023-10-19T04:10:59;93782.59;;;10.50;58.71
77871;BME280;67067;46.850;7.578;2023-10-19T04:12:19;93767.78;;;10.49;58.70
77871;BME280;67067;46.850;7.578;2023-10-19T04:13:23;93763.81;;;10.52;58.78
77871;BME280;67067;46.850;7.578;2023-10-19T04:14:25;93766.25;;;10.24;59.32
77871;BME280;67067;46.850;7.578;2023-10-19T04:15:28;93770.78;;;10.43;59.03
77871;BME280;67067;46.850;7.578;2023-10-19T04:16:37;93769.38;;;10.50;58.92
77871;BME280;67067;46.850;7.578;2023-10-19T04:17:39;93766.63;;;10.56;58.73
77871;BME280;67067;46.850;7.578;2023-10-19T04:18:44;93761.06;;;10.57;58.84
77871;BME280;67067;46.850;7.578;2023-10-19T04:19:46;93750.91;;;10.45;58.93
77871;BME280;67067;46.850;7.578;2023-10-19T04:20:51;93744.97;;;10.53;58.84
77871;BME280;67067;46.850;7.578;2023-10-19T04:21:56;93753.91;;;10.58;58.65
77871;BME280;67067;46.850;7.578;2023-10-19T04:22:59;93748.03;;;10.61;58.70
77871;BME280;67067;46.850;7.578;2023-10-19T04:24:13;93742.97;;;10.64;58.91
77871;BME280;67067;46.850;7.578;2023-10-19T04:25:17;93742.97;;;10.64;58.75
77871;BME280;67067;46.850;7.578;2023-10-19T04:26:22;93748.78;;;10.66;58.70
77871;BME280;67067;46.850;7.578;2023-10-19T04:27:26;93744.25;;;10.67;58.76
77871;BME280;67067;46.850;7.578;2023-10-19T04:28:28;93745.81;;;10.68;58.52
77871;BME280;67067;46.850;7.578;2023-10-19T04:29:45;93737.31;;;10.71;58.71
77871;BME280;67067;46.850;7.578;2023-10-19T04:30:47;93739.19;;;10.71;58.50
77871;BME280;67067;46.850;7.578;2023-10-19T04:31:50;93728.38;;;10.67;58.81
77871;BME280;67067;46.850;7.578;2023-10-19T04:32:56;93737.53;;;10.56;59.05
77871;BME280;67067;46.850;7.578;2023-10-19T04:33:59;93728.44;;;10.62;58.83
77871;BME280;67067;46.850;7.578;2023-10-19T04:35:14;93725.31;;;10.60;58.71
77871;BME280;67067;46.850;7.578;2023-10-19T04:36:23;93717.38;;;10.60;58.85
77871;BME280;67067;46.850;7.578;2023-10-19T04:37:27;93705.72;;;10.61;58.84
77871;BME280;67067;46.850;7.578;2023-10-19T04:38:29;93713.56;;;10.66;58.59
77871;BME280;67067;46.850;7.578;2023-10-19T04:39:33;93710.44;;;10.64;58.59
77871;BME280;67067;46.850;7.578;2023-10-19T04:40:35;93710.94;;;10.66;58.64
77871;BME280;67067;46.850;7.578;2023-10-19T04:41:39;93715.16;;;10.67;58.46
77871;BME280;67067;46.850;7.578;2023-10-19T04:42:41;93714.66;;;10.65;58.80
77871;BME280;67067;46.850;7.578;2023-10-19T04:43:48;93717.78;;;10.67;58.81
77871;BME280;67067;46.850;7.578;2023-10-19T04:44:55;93720.94;;;10.69;58.42
77871;BME280;67067;46.850;7.578;2023-10-19T04:45:57;93725.72;;;10.67;58.60
77871;BME280;67067;46.850;7.578;2023-10-19T04:47:00;93731.03;;;10.67;58.45
77871;BME280;67067;46.850;7.578;2023-10-19T04:48:02;93728.88;;;10.69;58.61
77871;BME280;67067;46.850;7.578;2023-10-19T04:49:06;93732.00;;;10.71;58.45
77871;BME280;67067;46.850;7.578;2023-10-19T04:50:08;93734.25;;;10.64;58.57
77871;BME280;67067;46.850;7.578;2023-10-19T04:51:12;93738.38;;;10.70;58.38
77871;BME280;67067;46.850;7.578;2023-10-19T04:52:14;93726.72;;;10.71;58.21
77871;BME280;67067;46.850;7.578;2023-10-19T04:53:16;93728.69;;;10.65;58.61
77871;BME280;67067;46.850;7.578;2023-10-19T04:54:22;93718.38;;;10.64;58.30
77871;BME280;67067;46.850;7.578;2023-10-19T04:55:24;93714.03;;;10.54;58.57
77871;BME280;67067;46.850;7.578;2023-10-19T04:56:26;93707.44;;;10.51;58.87
77871;BME280;67067;46.850;7.578;2023-10-19T04:57:31;93711.38;;;10.54;58.58
77871;BME280;67067;46.850;7.578;2023-10-19T04:58:35;93712.75;;;10.51;58.86
77871;BME280;67067;46.850;7.578;2023-10-19T04:59:41;93711.16;;;10.50;58.86
77871;BME280;67067;46.850;7.578;2023-10-19T05:00:49;93708.53;;;10.50;58.74
77871;BME280;67067;46.850;7.578;2023-10-19T05:01:50;93708.44;;;10.56;58.58
77871;BME280;67067;46.850;7.578;2023-10-19T05:02:52;93705.78;;;10.56;58.62
77871;BME280;67067;46.850;7.578;2023-10-19T05:03:55;93703.72;;;10.52;58.92
77871;BME280;67067;46.850;7.578;2023-10-19T05:04:57;93701.59;;;10.55;58.78
77871;BME280;67067;46.850;7.578;2023-10-19T05:05:58;93701.81;;;10.58;58.59
77871;BME280;67067;46.850;7.578;2023-10-19T05:07:00;93700.72;;;10.59;58.62
77871;BME280;67067;46.850;7.578;2023-10-19T05:08:05;93702.31;;;10.60;58.50
77871;BME280;67067;46.850;7.578;2023-10-19T05:09:07;93700.44;;;10.61;58.42
77871;BME280;67067;46.850;7.578;2023-10-19T05:10:10;93703.06;;;10.61;58.55
77871;BME280;67067;46.850;7.578;2023-10-19T05:11:15;93699.06;;;10.63;58.49
77871;BME280;67067;46.850;7.578;2023-10-19T05:12:18;93699.84;;;10.64;58.31
77871;BME280;67067;46.850;7.578;2023-10-19T05:13:23;93697.19;;;10.64;58.64
77871;BME280;67067;46.850;7.578;2023-10-19T05:14:25;93691.63;;;10.65;58.46
77871;BME280;67067;46.850;7.578;2023-10-19T05:15:29;93690.06;;;10.64;58.78
77871;BME280;67067;46.850;7.578;2023-10-19T05:16:31;93687.59;;;10.68;58.54
77871;BME280;67067;46.850;7.578;2023-10-19T05:17:37;93688.59;;;10.72;58.46
77871;BME280;67067;46.850;7.578;2023-10-19T05:18:43;93692.84;;;10.73;58.41
77871;BME280;67067;46.850;7.578;2023-10-19T05:19:44;93685.41;;;10.75;58.33
77871;BME280;67067;46.850;7.578;2023-10-19T05:20:48;93689.13;;;10.74;58.44
77871;BME280;67067;46.850;7.578;2023-10-19T05:21:50;93686.09;;;10.81;58.24
77871;BME280;67067;46.850;7.578;2023-10-19T05:22:53;93678.16;;;10.81;58.34
77871;BME280;67067;46.850;7.578;2023-10-19T05:23:55;93681.81;;;10.66;58.48
77871;BME280;67067;46.850;7.578;2023-10-19T05:24:57;93684.03;;;10.78;58.37
77871;BME280;67067;46.850;7.578;2023-10-19T05:26:04;93682.66;;;10.80;58.43
77871;BME280;67067;46.850;7.578;2023-10-19T05:27:06;93680.53;;;10.82;58.30
77871;BME280;67067;46.850;7.578;2023-10-19T05:28:14;93678.63;;;10.83;58.31
77871;BME280;67067;46.850;7.578;2023-10-19T05:29:16;93681.00;;;10.85;58.29
77871;BME280;67067;46.850;7.578;2023-10-19T05:30:17;93679.63;;;10.87;58.19
77871;BME280;67067;46.850;7.578;2023-10-19T05:31:20;93678.06;;;10.86;58.17
77871;BME280;67067;46.850;7.578;2023-10-19T05:32:22;93675.13;;;10.88;58.22
77871;BME280;67067;46.850;7.578;2023-10-19T05:33:32;93674.06;;;10.89;58.40
77871;BME280;67067;46.850;7.578;2023-10-19T05:34:34;93682.28;;;10.87;58.32
77871;BME280;67067;46.850;7.578;2023-10-19T05:35:37;93679.94;;;10.86;58.33
77871;BME280;67067;46.850;7.578;2023-10-19T05:36:42;93679.94;;;10.86;58.29
77871;BME280;67067;46.850;7.578;2023-10-19T05:37:46;93686.00;;;10.86;58.31
77871;BME280;67067;46.850;7.578;2023-10-19T05:38:48;93690.53;;;10.86;58.54
77871;BME280;67067;46.850;7.578;2023-10-19T05:39:53;93686.22;;;10.90;58.55
77871;BME280;67067;46.850;7.578;2023-10-19T05:40:57;93683.56;;;10.90;58.49
77871;BME280;67067;46.850;7.578;2023-10-19T05:42:03;93686.72;;;10.92;58.27
77871;BME280;67067;46.850;7.578;2023-10-19T05:43:06;93686.41;;;10.93;58.27
77871;BME280;67067;46.850;7.578;2023-10-19T05:44:09;93685.06;;;10.96;58.17
77871;BME280;67067;46.850;7.578;2023-10-19T05:45:14;93676.31;;;10.95;58.26
77871;BME280;67067;46.850;7.578;2023-10-19T05:46:18;93677.59;;;10.98;58.24
77871;BME280;67067;46.850;7.578;2023-10-19T05:47:23;93673.88;;;10.99;58.12
77871;BME280;67067;46.850;7.578;2023-10-19T05:48:24;93676.81;;;10.97;58.09
77871;BME280;67067;46.850;7.578;2023-10-19T05:49:26;93678.09;;;11.00;58.09
77871;BME280;67067;46.850;7.578;2023-10-19T05:50:30;93681.03;;;10.99;58.03
77871;BME280;67067;46.850;7.578;2023-10-19T05:51:32;93672.75;;;10.86;58.24
77871;BME280;67067;46.850;7.578;2023-10-19T05:52:34;93674.47;;;10.96;58.04